Time;durP1;ratioP1;P1;durP2;ratioP2;P2;SDS_P1;SDS_P2;PMS_P1;PMS_P2;Temp;Humidity;BMP_temperature;BMP_pressure;BME280_temperature;BME280_humidity;BME280_pressure;Samples;Min_cycle;Max_cycle;Signal;HPM_P1;HPM_P2
2021/07/03 00:02:06;;;;;;;;;11.00;10.00;;;;;22.90;50.35;101149.94;6212843;22;45334;-89
2021/07/03 00:04:31;;;;;;;;;11.00;11.00;;;;;22.89;50.30;101150.06;6213355;22;45355;-88
2021/07/03 00:06:56;;;;;;;;;10.00;9.00;;;;;22.89;50.33;101148.25;6210986;22;48310;-89
2021/07/03 00:09:22;;;;;;;;;10.33;9.00;;;;;22.86;50.21;101145.84;6212931;22;45349;-88
2021/07/03 00:11:47;;;;;;;;;11.33;10.00;;;;;22.84;50.58;101161.06;6212979;22;45667;-88
2021/07/03 00:14:14;;;;;;;;;9.67;9.67;;;;;22.79;50.56;101160.59;6213315;22;45435;-88
2021/07/03 00:16:40;;;;;;;;;9.00;9.00;;;;;22.79;50.25;101168.53;6210300;22;47037;-88
2021/07/03 00:19:06;;;;;;;;;13.00;11.25;;;;;22.74;50.58;101162.78;6212977;22;45283;-88
2021/07/03 00:21:32;;;;;;;;;10.67;10.67;;;;;22.71;50.37;101163.88;6213053;22;45330;-88
2021/07/03 00:23:57;;;;;;;;;9.67;9.33;;;;;22.69;50.38;101163.97;6211334;22;45515;-88
2021/07/03 00:26:23;;;;;;;;;9.50;9.50;;;;;22.64;51.11;101168.81;6212823;22;46134;-88
2021/07/03 00:28:48;;;;;;;;;11.75;11.75;;;;;22.59;50.58;101170.16;6212859;22;45273;-89
2021/07/03 00:31:14;;;;;;;;;10.50;10.00;;;;;22.54;50.99;101162.59;6212983;22;45646;-88
2021/07/03 00:33:39;;;;;;;;;13.00;10.00;;;;;22.52;50.68;101159.16;6213190;22;45270;-88
2021/07/03 00:36:05;;;;;;;;;13.33;12.67;;;;;22.50;50.98;101159.28;6211016;22;47349;-88
2021/07/03 00:38:30;;;;;;;;;11.33;10.67;;;;;22.52;50.62;101162.72;6210900;22;45346;-88
2021/07/03 00:40:55;;;;;;;;;11.50;11.50;;;;;22.50;50.77;101161.94;6212875;22;45276;-89
2021/07/03 00:43:21;;;;;;;;;9.00;9.00;;;;;22.52;50.74;101165.34;6213099;22;45280;-88
2021/07/03 00:45:46;;;;;;;;;11.00;10.50;;;;;22.49;50.73;101162.91;6212645;22;46004;-89
2021/07/03 00:48:12;;;;;;;;;10.00;10.00;;;;;22.46;51.33;101154.34;6212592;22;45280;-88
2021/07/03 00:50:37;;;;;;;;;10.25;8.25;;;;;22.43;51.36;101156.31;6212991;22;45261;-88
2021/07/03 00:53:03;;;;;;;;;13.25;10.75;;;;;22.42;51.23;101144.03;6212961;22;45788;-89
2021/07/03 00:55:30;;;;;;;;;11.00;11.00;;;;;22.41;50.94;101147.63;6210304;22;48263;-88
2021/07/03 00:57:55;;;;;;;;;11.75;10.25;;;;;22.42;51.25;101159.94;6212377;22;45259;-88
2021/07/03 01:00:22;;;;;;;;;12.25;11.25;;;;;22.36;51.21;101141.84;6212575;22;45372;-88
2021/07/03 01:02:48;;;;;;;;;10.00;10.00;;;;;22.31;51.68;101138.72;6212893;22;45295;-88
2021/07/03 01:05:14;;;;;;;;;10.50;9.25;;;;;22.31;51.63;101140.53;6212409;22;46308;-88
2021/07/03 01:07:40;;;;;;;;;10.00;10.00;;;;;22.26;51.74;101135.59;6212795;22;45262;-88
2021/07/03 01:10:19;;;;;;;;;9.67;9.67;;;;;22.21;51.63;101132.47;6211406;22;45438;-88
2021/07/03 01:12:45;;;;;;;;;11.00;11.00;;;;;22.22;51.54;101139.47;6214197;22;45338;-88
2021/07/03 01:15:11;;;;;;;;;9.50;9.00;;;;;22.14;51.44;101143.53;6213589;22;45408;-88
2021/07/03 01:17:37;;;;;;;;;10.50;10.50;;;;;22.12;52.22;101137.53;6213273;22;45258;-88
2021/07/03 01:20:04;;;;;;;;;12.75;11.25;;;;;22.10;51.91;101135.97;6214417;22;45318;-88
2021/07/03 01:22:30;;;;;;;;;11.33;11.00;;;;;22.07;51.67;101129.09;6214187;22;45226;-89
2021/07/03 01:24:55;;;;;;;;;15.00;12.00;;;;;22.05;51.79;101136.34;6211671;22;47305;-88
2021/07/03 01:27:20;;;;;;;;;9.00;9.00;;;;;22.06;52.42;101129.22;6213697;22;45286;-88
2021/07/03 01:29:46;;;;;;;;;13.00;11.25;;;;;22.01;52.36;101127.78;6214137;22;46040;-89
2021/07/03 01:32:12;;;;;;;;;10.25;10.25;;;;;22.00;52.16;101125.25;6213737;22;45283;-88
2021/07/03 01:34:38;;;;;;;;;14.50;14.00;;;;;21.95;52.48;101122.97;6213403;22;45416;-88
2021/07/03 01:37:04;;;;;;;;;10.75;10.75;;;;;21.93;52.38;101121.41;6213830;22;45276;-88
2021/07/03 01:39:30;;;;;;;;;13.67;10.67;;;;;21.91;52.55;101124.16;6213662;22;45429;-89
2021/07/03 01:41:55;;;;;;;;;11.00;11.00;;;;;21.85;52.30;101119.34;6237593;22;45451;-88
2021/07/03 01:44:27;;;;;;;;;11.25;10.75;;;;;21.82;53.18;101115.13;6211409;22;46441;-88
2021/07/03 01:46:56;;;;;;;;;11.25;11.25;;;;;21.79;53.16;101112.72;6211158;22;45354;-88
2021/07/03 01:49:22;;;;;;;;;10.75;10.75;;;;;21.75;53.22;101109.47;6213751;22;45240;-88
2021/07/03 01:51:48;;;;;;;;;11.25;11.00;;;;;21.74;52.78;101109.59;6211866;22;45294;-89
2021/07/03 01:54:14;;;;;;;;;10.00;10.00;;;;;21.71;52.82;101104.53;6213380;22;45231;-88
2021/07/03 01:56:45;;;;;;;;;12.75;11.00;;;;;21.73;53.33;101108.75;6213184;22;45369;-89
2021/07/03 01:59:12;;;;;;;;;13.00;13.00;;;;;21.69;53.27;101109.91;6213820;22;45505;-89
2021/07/03 02:01:38;;;;;;;;;11.67;10.67;;;;;21.68;53.33;101105.59;6213950;22;45268;-88
2021/07/03 02:04:04;;;;;;;;;12.67;12.00;;;;;21.65;53.08;101107.63;6211236;22;47334;-88
2021/07/03 02:06:30;;;;;;;;;8.33;8.33;;;;;21.65;53.40;101111.09;6213549;22;45595;-88
2021/07/03 02:08:55;;;;;;;;;10.67;10.67;;;;;21.63;53.17;101115.69;6213818;22;45401;-89
2021/07/03 02:11:21;;;;;;;;;11.00;11.00;;;;;21.65;53.20;101112.94;6213950;22;45335;-88
2021/07/03 02:13:47;;;;;;;;;11.67;11.67;;;;;21.62;53.37;101103.41;6213421;22;45351;-88
2021/07/03 02:16:12;;;;;;;;;9.33;9.33;;;;;21.59;53.27;101101.84;6213553;22;45382;-89
2021/07/03 02:18:37;;;;;;;;;11.00;11.00;;;;;21.54;53.77;101097.84;6212929;22;45310;-88
2021/07/03 02:21:03;;;;;;;;;11.00;11.00;;;;;21.55;53.83;101102.19;6211430;22;45391;-89
2021/07/03 02:23:28;;;;;;;;;10.67;10.67;;;;;21.53;53.48;101104.13;6213278;22;46044;-88
2021/07/03 02:25:54;;;;;;;;;10.00;10.00;;;;;21.51;53.65;101098.13;6237253;22;45280;-88
2021/07/03 02:28:20;;;;;;;;;10.00;10.00;;;;;21.52;53.48;101103.25;6213436;22;45305;-87
2021/07/03 02:30:45;;;;;;;;;11.67;11.67;;;;;21.49;53.73;101099.03;6213869;22;45302;-87
2021/07/03 02:33:12;;;;;;;;;11.00;10.33;;;;;21.50;53.62;101105.19;6211033;22;48240;-88
2021/07/03 02:35:37;;;;;;;;;11.00;10.00;;;;;21.48;53.76;101107.13;6213441;22;45251;-88
2021/07/03 02:38:04;;;;;;;;;9.00;8.67;;;;;21.46;54.08;101101.94;6213323;22;45316;-88
2021/07/03 02:40:29;;;;;;;;;11.00;9.00;;;;;21.44;54.10;101103.03;6211999;22;45236;-88
2021/07/03 02:42:55;;;;;;;;;14.00;11.00;;;;;21.40;53.80;101099.78;6213203;22;45901;-88
2021/07/03 02:45:21;;;;;;;;;12.33;12.33;;;;;21.42;53.80;101103.13;6213725;22;45290;-88
2021/07/03 02:47:47;;;;;;;;;11.00;11.00;;;;;21.38;53.85;101095.56;6212941;22;45451;-88
2021/07/03 02:50:15;;;;;;;;;15.67;13.33;;;;;21.35;53.94;101089.53;6213584;22;45562;-88
2021/07/03 02:52:41;;;;;;;;;11.33;10.00;;;;;21.34;53.79;101092.31;6211330;22;47392;-88
2021/07/03 02:55:08;;;;;;;;;8.00;8.00;;;;;21.31;54.04;101093.38;6211408;22;45813;-88
2021/07/03 02:57:33;;;;;;;;;10.00;10.00;;;;;21.31;54.04;101096.03;6212860;22;45334;-88
2021/07/03 02:59:59;;;;;;;;;10.67;10.00;;;;;21.26;54.41;101094.69;6213402;22;45386;-88
2021/07/03 03:02:24;;;;;;;;;11.00;10.67;;;;;21.25;53.63;101095.66;6213039;22;45922;-88
2021/07/03 03:04:50;;;;;;;;;11.33;11.33;;;;;21.22;54.18;101089.63;6213162;22;45359;-88
2021/07/03 03:07:15;;;;;;;;;12.67;11.33;;;;;21.20;54.55;101093.34;6211572;22;45736;-88
2021/07/03 03:09:41;;;;;;;;;10.33;10.33;;;;;21.18;54.36;101089.97;6213585;22;45322;-88
2021/07/03 03:12:07;;;;;;;;;13.33;12.33;;;;;21.15;54.36;101085.75;6213169;22;46007;-88
2021/07/03 03:14:32;;;;;;;;;11.67;11.00;;;;;21.14;54.16;101086.72;6236603;22;45401;-88
2021/07/03 03:16:57;;;;;;;;;11.33;11.33;;;;;21.09;54.36;101089.72;6213498;22;44772;-88
2021/07/03 03:19:23;;;;;;;;;10.00;9.67;;;;;21.04;54.67;101086.56;6212904;22;45424;-89
2021/07/03 03:21:50;;;;;;;;;14.00;12.00;;;;;21.04;54.88;101096.28;6213296;22;45750;-89
2021/07/03 03:24:16;;;;;;;;;12.33;11.00;;;;;20.99;54.93;101101.09;6213389;22;45464;-89
2021/07/03 03:26:41;;;;;;;;;11.00;11.00;;;;;20.91;55.08;101089.28;6213344;22;45282;-88
2021/07/03 03:29:06;;;;;;;;;13.00;11.75;;;;;20.89;55.48;101090.34;6213682;22;45212;-89
2021/07/03 03:31:32;;;;;;;;;11.33;11.33;;;;;20.88;55.30;101084.22;6213086;22;45487;-88
2021/07/03 03:33:57;;;;;;;;;13.33;13.33;;;;;20.90;54.98;101084.97;6213057;22;45298;-88
2021/07/03 03:36:23;;;;;;;;;13.00;11.67;;;;;20.90;54.95;101082.31;6213427;22;45187;-88
2021/07/03 03:38:48;;;;;;;;;13.00;12.00;;;;;20.91;55.62;101088.44;6211233;22;45221;-88
2021/07/03 03:41:14;;;;;;;;;14.33;11.33;;;;;20.89;55.69;101093.00;6213127;22;45175;-88
2021/07/03 03:43:40;;;;;;;;;15.00;12.00;;;;;20.88;55.45;101091.31;6213241;22;45204;-89
2021/07/03 03:46:06;;;;;;;;;11.00;9.33;;;;;20.85;55.22;101094.16;6211433;22;45349;-88
2021/07/03 03:48:31;;;;;;;;;11.67;10.33;;;;;20.83;55.31;101087.19;6212786;22;45346;-88
2021/07/03 03:50:57;;;;;;;;;11.00;11.00;;;;;20.83;55.67;101097.75;6212662;22;45322;-87
2021/07/03 03:53:22;;;;;;;;;14.33;11.00;;;;;20.85;55.62;101100.31;6213440;22;45364;-88
2021/07/03 03:55:48;;;;;;;;;12.00;12.00;;;;;20.82;55.66;101088.13;6213060;22;45239;-88
2021/07/03 03:58:13;;;;;;;;;11.00;11.00;;;;;20.87;55.41;101089.63;6212862;22;45470;-88
2021/07/03 04:00:38;;;;;;;;;14.67;14.00;;;;;20.85;56.12;101087.09;6212984;22;45731;-88
2021/07/03 04:03:04;;;;;;;;;12.00;12.00;;;;;20.88;56.27;101100.09;6213056;22;45362;-88
2021/07/03 04:05:29;;;;;;;;;10.67;10.67;;;;;20.86;55.73;101091.44;6212751;22;45395;-88
2021/07/03 04:07:55;;;;;;;;;13.67;11.00;;;;;20.86;55.98;101096.72;6213632;22;45287;-88
2021/07/03 04:10:20;;;;;;;;;11.33;10.33;;;;;20.88;56.03;101105.38;6213004;22;45337;-88
2021/07/03 04:12:45;;;;;;;;;13.67;12.67;;;;;20.87;56.12;101100.22;6211009;22;45333;-88
2021/07/03 04:15:12;;;;;;;;;10.33;10.33;;;;;20.88;55.53;101113.31;6213188;22;45322;-88
2021/07/03 04:17:38;;;;;;;;;15.00;13.00;;;;;20.83;56.05;101113.63;6213654;22;45450;-88
2021/07/03 04:20:06;;;;;;;;;11.00;11.00;;;;;20.83;56.27;101120.72;6212559;22;45870;-88
2021/07/03 04:22:31;;;;;;;;;13.33;12.67;;;;;20.78;56.13;101115.75;6211048;22;45287;-88
2021/07/03 04:24:57;;;;;;;;;12.67;12.00;;;;;20.78;56.13;101112.28;6212997;22;45227;-88
2021/07/03 04:27:22;;;;;;;;;13.00;11.33;;;;;20.81;56.19;101115.56;6213106;22;45322;-88
2021/07/03 04:29:48;;;;;;;;;13.00;12.67;;;;;20.82;56.32;101111.94;6212861;22;45236;-88
2021/07/03 04:32:13;;;;;;;;;11.67;11.67;;;;;20.81;56.03;101104.97;6212910;22;45614;-88
2021/07/03 04:34:39;;;;;;;;;12.67;10.67;;;;;20.83;56.01;101110.97;6212923;22;45283;-88
2021/07/03 04:37:04;;;;;;;;;11.00;11.00;;;;;20.86;56.06;101115.22;6211081;22;45355;-89
2021/07/03 04:39:29;;;;;;;;;12.00;11.00;;;;;20.87;56.15;101121.38;6212853;22;46107;-89
2021/07/03 04:41:55;;;;;;;;;12.33;11.00;;;;;20.89;56.24;101124.75;6213032;22;45397;-88
2021/07/03 04:44:21;;;;;;;;;12.67;12.67;;;;;20.90;56.31;101122.00;6210552;22;45330;-88
2021/07/03 04:46:47;;;;;;;;;12.67;11.00;;;;;20.90;56.23;101129.91;6213208;22;45243;-88
2021/07/03 04:49:14;;;;;;;;;12.00;10.33;;;;;20.94;56.20;101130.53;6212400;22;45521;-88
2021/07/03 04:51:39;;;;;;;;;11.67;11.00;;;;;20.94;55.82;101130.53;6212329;22;45172;-89
2021/07/03 04:54:06;;;;;;;;;11.33;10.33;;;;;20.95;56.51;101134.88;6212793;22;45242;-88
2021/07/03 04:56:32;;;;;;;;;12.00;11.67;;;;;20.93;56.33;101121.75;6213139;22;45691;-89
2021/07/03 04:58:57;;;;;;;;;13.00;12.00;;;;;20.95;56.50;101119.00;6212628;22;46105;-89
2021/07/03 05:01:23;;;;;;;;;12.00;12.00;;;;;20.98;56.12;101120.56;6212598;22;45288;-88
2021/07/03 05:03:50;;;;;;;;;11.00;11.00;;;;;21.01;56.24;101126.47;6212497;22;45426;-89
2021/07/03 05:06:15;;;;;;;;;14.33;12.67;;;;;21.03;56.40;101126.38;6210916;22;45367;-88
2021/07/03 05:08:41;;;;;;;;;14.00;13.00;;;;;21.04;56.49;101128.03;6212378;22;45212;-88
2021/07/03 05:11:06;;;;;;;;;12.33;12.33;;;;;21.04;56.13;101120.09;6212803;22;45259;-89
2021/07/03 05:13:32;;;;;;;;;10.00;10.00;;;;;21.04;56.35;101115.66;6212645;22;45374;-89
2021/07/03 05:15:57;;;;;;;;;12.00;12.00;;;;;21.05;56.12;101109.41;6213031;22;45305;-88
2021/07/03 05:18:23;;;;;;;;;11.33;11.33;;;;;21.09;56.38;101117.97;6212391;22;45486;-88
2021/07/03 05:20:48;;;;;;;;;12.00;11.33;;;;;21.12;56.24;101109.81;6212081;22;45215;-88
2021/07/03 05:23:14;;;;;;;;;12.33;11.67;;;;;21.15;56.58;101117.50;6212826;22;45258;-88
2021/07/03 05:25:41;;;;;;;;;13.00;12.00;;;;;21.17;56.36;101110.31;6212648;22;45212;-89
2021/07/03 05:28:07;;;;;;;;;12.00;10.33;;;;;21.22;56.72;101112.59;6212469;22;45353;-88
2021/07/03 05:30:33;;;;;;;;;11.67;11.67;;;;;21.21;56.52;101105.63;6212412;22;45295;-88
2021/07/03 05:32:58;;;;;;;;;12.00;10.00;;;;;21.24;56.69;101102.72;6210306;22;45482;-89
2021/07/03 05:35:24;;;;;;;;;10.00;10.00;;;;;21.26;56.52;101106.13;6212313;22;45299;-88
2021/07/03 05:37:49;;;;;;;;;12.00;11.00;;;;;21.28;56.49;101098.91;6211855;22;46021;-89
2021/07/03 05:40:16;;;;;;;;;14.00;12.00;;;;;21.29;56.86;101089.16;6212174;22;45306;-89
2021/07/03 05:42:42;;;;;;;;;11.67;11.67;;;;;21.33;56.48;101087.94;6212464;22;45343;-88
2021/07/03 05:45:09;;;;;;;;;15.00;13.33;;;;;21.32;56.56;101084.47;6212369;22;45356;-89
2021/07/03 05:47:34;;;;;;;;;11.00;11.00;;;;;21.33;56.40;101086.16;6211693;22;45460;-89
2021/07/03 05:50:00;;;;;;;;;13.00;11.50;;;;;21.35;56.30;101088.69;6208886;22;45411;-88
2021/07/03 05:52:25;;;;;;;;;12.00;11.67;;;;;21.38;56.29;101099.03;6212324;22;45321;-89
2021/07/03 05:54:50;;;;;;;;;13.00;12.33;;;;;21.37;56.43;101100.00;6212895;22;44709;-90
2021/07/03 05:57:16;;;;;;;;;14.00;12.33;;;;;21.38;56.35;101101.69;6210823;22;47218;-89
2021/07/03 05:59:41;;;;;;;;;12.00;11.67;;;;;21.39;56.51;101098.09;6213732;22;45592;-89
2021/07/03 06:02:07;;;;;;;;;12.67;12.00;;;;;21.40;56.55;101099.78;6213950;22;45390;-89
2021/07/03 06:04:33;;;;;;;;;11.67;10.33;;;;;21.41;56.34;101097.94;6237897;22;45392;-89
2021/07/03 06:06:58;;;;;;;;;14.00;13.00;;;;;21.43;56.75;101098.69;6211388;22;45898;-89
2021/07/03 06:09:24;;;;;;;;;14.25;14.00;;;;;21.45;56.57;101099.41;6211348;22;45446;-89
2021/07/03 06:11:49;;;;;;;;;15.00;13.00;;;;;21.45;56.65;101096.75;6211718;22;45414;-89
2021/07/03 06:14:15;;;;;;;;;14.33;14.00;;;;;21.48;56.54;101093.91;6213644;22;45799;-89
2021/07/03 06:16:40;;;;;;;;;14.00;14.00;;;;;21.53;56.98;101091.75;6213427;22;45191;-90
2021/07/03 06:19:05;;;;;;;;;15.00;14.00;;;;;21.58;57.17;101099.31;6213401;22;45256;-90
2021/07/03 06:21:31;;;;;;;;;14.00;14.00;;;;;21.62;57.44;101106.91;6211641;22;45562;-89
2021/07/03 06:23:57;;;;;;;;;15.67;14.67;;;;;21.68;57.35;101110.03;6214124;22;45307;-90
2021/07/03 06:26:22;;;;;;;;;11.33;11.33;;;;;21.73;56.72;101105.25;6213482;22;45520;-89
2021/07/03 06:28:47;;;;;;;;;16.00;13.50;;;;;21.76;56.86;101118.28;6190851;22;45678;-90
2021/07/03 06:31:13;;;;;;;;;13.25;13.00;;;;;21.82;56.84;101114.28;6213599;22;45298;-89
2021/07/03 06:33:39;;;;;;;;;14.00;12.67;;;;;21.84;56.99;101115.84;6213651;22;45272;-90
2021/07/03 06:36:04;;;;;;;;;14.00;12.00;;;;;21.90;56.74;101122.50;6213394;22;45927;-90
2021/07/03 06:38:30;;;;;;;;;19.00;15.67;;;;;21.88;56.71;101119.09;6213383;22;45445;-89
2021/07/03 06:40:55;;;;;;;;;14.33;14.33;;;;;21.92;56.94;101117.06;6211517;22;45209;-89
2021/07/03 06:43:21;;;;;;;;;15.33;15.00;;;;;21.93;56.56;101116.94;6211956;22;45451;-89
2021/07/03 06:45:46;;;;;;;;;14.33;13.33;;;;;21.93;57.13;101105.50;6211356;22;48085;-89
2021/07/03 06:48:12;;;;;;;;;14.33;14.33;;;;;21.98;56.52;101116.59;6213659;22;45610;-89
2021/07/03 06:50:37;;;;;;;;;15.00;13.00;;;;;22.01;56.48;101109.25;6211208;22;45381;-89
2021/07/03 06:53:03;;;;;;;;;14.33;13.67;;;;;22.05;56.58;101109.84;6211487;22;45361;-90
2021/07/03 06:55:28;;;;;;;;;16.50;15.00;;;;;22.14;56.52;101113.56;6211514;22;46525;-90
2021/07/03 06:57:54;;;;;;;;;13.67;12.00;;;;;22.18;56.44;101124.75;6211113;22;45355;-89
2021/07/03 07:00:20;;;;;;;;;15.67;15.00;;;;;22.26;56.21;101139.09;6213350;22;45389;-89
2021/07/03 07:02:45;;;;;;;;;13.00;11.33;;;;;22.27;56.21;101132.81;6213756;22;45431;-89
2021/07/03 07:05:11;;;;;;;;;18.67;16.67;;;;;22.37;56.76;101137.38;6210957;22;47312;-89
2021/07/03 07:07:37;;;;;;;;;14.33;13.33;;;;;22.40;56.23;101137.16;6211146;22;45462;-89
2021/07/03 07:10:05;;;;;;;;;16.00;13.67;;;;;22.45;56.50;101134.94;6236914;22;45243;-89
2021/07/03 07:12:31;;;;;;;;;13.00;13.00;;;;;22.49;56.00;101122.31;6213373;22;45302;-89
2021/07/03 07:14:56;;;;;;;;;14.00;14.00;;;;;22.53;56.54;101127.25;6213374;22;45260;-89
2021/07/03 07:17:22;;;;;;;;;17.33;14.00;;;;;22.62;56.44;101135.44;6212894;22;45474;-89
2021/07/03 07:19:48;;;;;;;;;15.33;14.00;;;;;22.70;55.91;101138.31;6213712;22;45179;-89
2021/07/03 07:22:13;;;;;;;;;14.00;13.67;;;;;22.75;56.00;101130.81;6211408;22;45534;-90
2021/07/03 07:24:39;;;;;;;;;14.67;14.67;;;;;22.78;55.87;101135.03;6211537;22;47419;-90
2021/07/03 07:27:05;;;;;;;;;13.33;12.00;;;;;22.86;55.87;101145.84;6213418;22;45389;-90
2021/07/03 07:29:30;;;;;;;;;18.00;15.00;;;;;22.91;55.98;101151.63;6204724;22;45313;-90
2021/07/03 07:31:56;;;;;;;;;12.33;11.67;;;;;22.94;55.57;101146.06;6211726;22;45236;-90
2021/07/03 07:34:21;;;;;;;;;15.33;15.00;;;;;22.97;55.61;101142.31;6211175;22;47173;-90
2021/07/03 07:36:46;;;;;;;;;14.50;14.50;;;;;23.02;56.11;101140.13;6213270;22;44762;-90
2021/07/03 07:39:12;;;;;;;;;14.00;12.33;;;;;23.09;55.67;101143.09;6236427;22;45312;-90
2021/07/03 07:41:37;;;;;;;;;17.33;17.33;;;;;23.08;55.98;101152.03;6213379;22;45223;-90
2021/07/03 07:44:04;;;;;;;;;12.67;12.67;;;;;23.08;55.33;101152.03;6213265;22;46069;-90
2021/07/03 07:46:30;;;;;;;;;14.75;14.00;;;;;23.05;55.61;101161.09;6212973;22;45263;-88
2021/07/03 07:48:57;;;;;;;;;14.00;13.00;;;;;23.03;55.05;101152.44;6213046;22;45444;-90
2021/07/03 07:51:23;;;;;;;;;13.67;13.67;;;;;22.99;55.60;101158.94;6213410;22;45333;-90
2021/07/03 07:53:49;;;;;;;;;16.67;16.67;;;;;22.99;55.36;101166.91;6210409;22;47991;-89
2021/07/03 07:56:18;;;;;;;;;15.50;15.50;;;;;23.01;55.52;101172.09;6210865;22;45311;-90
2021/07/03 07:58:45;;;;;;;;;15.75;14.25;;;;;23.02;55.36;101177.28;6212643;22;45223;-90
2021/07/03 08:01:14;;;;;;;;;14.00;12.33;;;;;23.03;55.11;101175.47;6210951;22;45416;-89
2021/07/03 08:03:43;;;;;;;;;14.00;13.00;;;;;23.03;55.88;101173.66;6213075;22;45607;-89
2021/07/03 08:06:09;;;;;;;;;16.33;15.00;;;;;23.06;55.42;101164.59;6211747;22;45374;-89
2021/07/03 08:08:35;;;;;;;;;15.00;13.67;;;;;23.08;55.32;101152.88;6212441;22;45420;-89
2021/07/03 08:11:01;;;;;;;;;13.67;13.67;;;;;23.12;55.82;101158.78;6210708;22;45370;-89
2021/07/03 08:13:26;;;;;;;;;15.00;14.67;;;;;23.12;55.63;101145.50;6212352;22;45601;-89
2021/07/03 08:15:52;;;;;;;;;14.00;13.67;;;;;23.17;55.52;101142.47;6235886;22;45399;-88
2021/07/03 08:18:20;;;;;;;;;17.67;17.67;;;;;23.23;55.68;101149.91;6209856;22;45291;-89
2021/07/03 08:20:46;;;;;;;;;15.67;12.67;;;;;23.25;55.50;101153.28;6210749;22;45423;-89
2021/07/03 08:23:12;;;;;;;;;10.00;10.00;;;;;23.26;55.27;101162.94;6209809;22;47200;-89
2021/07/03 08:25:37;;;;;;;;;13.33;11.67;;;;;23.27;55.19;101158.47;6233834;22;45519;-89
2021/07/03 08:28:08;;;;;;;;;11.00;10.00;;;;;23.28;55.15;101157.50;6210461;22;44724;-92
2021/07/03 08:30:34;;;;;;;;;11.00;11.00;;;;;23.27;54.44;101151.34;6211411;22;45519;-89
2021/07/03 08:33:00;;;;;;;;;10.67;9.67;;;;;23.25;54.52;101150.63;6212150;22;45413;-89
2021/07/03 08:35:26;;;;;;;;;10.33;9.67;;;;;23.23;55.30;101158.72;6210506;22;45351;-88
2021/07/03 08:37:52;;;;;;;;;11.33;11.00;;;;;23.26;54.35;101152.31;6210538;22;45252;-89
2021/07/03 08:40:18;;;;;;;;;14.00;13.00;;;;;23.28;54.59;101157.50;6213328;22;45338;-89
2021/07/03 08:42:44;;;;;;;;;9.00;9.00;;;;;23.31;53.96;101162.53;6212860;22;45887;-89
2021/07/03 08:45:11;;;;;;;;;12.00;9.67;;;;;23.28;53.85;101153.03;6210709;22;45473;-89
2021/07/03 08:47:41;;;;;;;;;10.00;9.00;;;;;23.23;54.17;101156.06;6211038;22;45322;-89
2021/07/03 08:50:10;;;;;;;;;11.00;9.67;;;;;23.20;53.84;101156.31;6210990;22;45505;-89
2021/07/03 08:52:35;;;;;;;;;11.33;10.33;;;;;23.18;53.77;101168.03;6212363;22;45298;-89
2021/07/03 08:55:01;;;;;;;;;9.67;9.67;;;;;23.14;53.81;101161.31;6212042;22;45267;-89
2021/07/03 08:57:26;;;;;;;;;6.00;5.33;;;;;23.11;53.03;101159.75;6211448;22;45335;-88
2021/07/03 08:59:57;;;;;;;;;14.00;13.00;;;;;23.08;53.54;101167.97;6211060;22;45604;-89
2021/07/03 09:02:38;;;;;;;;;9.33;9.33;;;;;23.01;52.80;101175.56;6212340;22;47497;-89
2021/07/03 09:05:19;;;;;;;;;10.33;9.33;;;;;22.97;53.39;101166.22;6212556;22;45382;-89
2021/07/03 09:07:45;;;;;;;;;9.33;7.33;;;;;22.95;53.55;101168.13;6210592;22;45319;-89
2021/07/03 09:10:11;;;;;;;;;11.00;9.33;;;;;22.98;54.20;101169.69;6212760;22;45405;-89
2021/07/03 09:12:37;;;;;;;;;13.67;13.67;;;;;22.98;53.89;101167.88;6210697;22;47390;-89
2021/07/03 09:15:08;;;;;;;;;11.50;10.25;;;;;22.99;53.93;101168.75;6212473;22;44770;-89
2021/07/03 09:17:48;;;;;;;;;13.25;9.75;;;;;22.98;53.82;101173.19;6212516;22;45567;-89
2021/07/03 09:20:20;;;;;;;;;10.00;10.00;;;;;22.99;53.61;101176.69;6236363;22;45436;-89
2021/07/03 09:22:45;;;;;;;;;12.25;11.25;;;;;23.00;53.82;101163.28;6212022;22;46217;-88
2021/07/03 09:25:16;;;;;;;;;8.00;8.00;;;;;23.06;53.67;101168.09;6210351;22;45965;-89
2021/07/03 09:27:42;;;;;;;;;9.67;9.00;;;;;23.08;53.70;101165.31;6212980;22;45520;-89
2021/07/03 09:30:08;;;;;;;;;14.33;13.33;;;;;23.15;54.37;101176.25;6213078;22;45219;-89
2021/07/03 09:32:33;;;;;;;;;10.33;10.33;;;;;23.15;54.43;101176.25;6211863;22;47257;-89
2021/07/03 09:35:06;;;;;;;;;11.33;11.00;;;;;23.20;54.27;101163.47;6213885;22;45279;-89
2021/07/03 09:37:32;;;;;;;;;11.25;11.25;;;;;23.19;54.23;101169.75;6213739;22;45144;-89
2021/07/03 09:40:08;;;;;;;;;10.50;10.50;;;;;23.22;54.47;101174.78;6214026;22;45227;-89
2021/07/03 09:42:38;;;;;;;;;10.25;10.25;;;;;23.20;54.45;101174.91;6213964;22;46426;-88
2021/07/03 09:45:06;;;;;;;;;10.25;10.25;;;;;23.21;54.35;101176.59;6211644;22;45325;-89
2021/07/03 09:47:31;;;;;;;;;11.00;10.00;;;;;23.19;54.59;101181.19;6237395;22;45280;-88
2021/07/03 09:50:03;;;;;;;;;14.33;12.67;;;;;23.20;54.46;101185.50;6214127;22;45462;-89
2021/07/03 09:52:29;;;;;;;;;14.33;12.67;;;;;23.18;54.05;101179.50;6211382;22;47047;-88
2021/07/03 09:54:55;;;;;;;;;10.00;8.67;;;;;23.19;54.08;101185.66;6213664;22;45476;-89
2021/07/03 09:57:22;;;;;;;;;11.33;11.33;;;;;23.17;53.79;101187.59;6213573;22;45368;-89
2021/07/03 09:59:49;;;;;;;;;13.67;11.00;;;;;23.16;53.85;101194.72;6214215;22;45203;-89
2021/07/03 10:02:14;;;;;;;;;11.25;11.00;;;;;23.15;53.96;101200.97;6211678;22;47454;-88
2021/07/03 10:04:40;;;;;;;;;10.00;10.00;;;;;23.09;54.07;101198.84;6211559;22;45335;-89
2021/07/03 10:07:15;;;;;;;;;10.00;9.33;;;;;23.08;54.09;101199.81;6211807;22;45512;-89
2021/07/03 10:09:51;;;;;;;;;11.00;10.25;;;;;23.11;54.26;101209.34;6213103;22;45473;-88
2021/07/03 10:12:29;;;;;;;;;12.00;11.25;;;;;23.09;54.13;101207.66;6213628;22;45470;-88
2021/07/03 10:14:55;;;;;;;;;11.00;10.00;;;;;23.12;54.10;101203.91;6213329;22;45323;-88
2021/07/03 10:17:24;;;;;;;;;13.33;10.33;;;;;23.16;54.18;101207.13;6213457;22;45433;-89
2021/07/03 10:19:50;;;;;;;;;9.67;9.67;;;;;23.18;53.78;101198.09;6213762;22;45665;-88
2021/07/03 10:22:24;;;;;;;;;9.67;8.67;;;;;23.20;53.67;101200.63;6213257;22;45581;-88
2021/07/03 10:24:53;;;;;;;;;11.00;9.00;;;;;23.20;53.17;101204.09;6211031;22;45168;-88
2021/07/03 10:27:21;;;;;;;;;10.33;10.33;;;;;23.23;53.51;101195.91;6213190;22;45647;-88
2021/07/03 10:29:48;;;;;;;;;13.67;11.67;;;;;23.26;53.22;101196.59;6213567;22;45206;-88
2021/07/03 10:32:35;;;;;;;;;11.00;9.67;;;;;23.26;53.68;101194.78;6210238;22;45347;-88
2021/07/03 10:35:09;;;;;;;;;9.67;9.67;;;;;23.28;53.53;101195.50;6211801;22;48609;-89
2021/07/03 10:37:35;;;;;;;;;11.75;11.25;;;;;23.28;53.08;101190.19;6213069;22;45581;-88
2021/07/03 10:40:01;;;;;;;;;10.33;10.33;;;;;23.32;53.14;101186.34;6212480;22;45598;-88
2021/07/03 10:42:33;;;;;;;;;10.33;10.00;;;;;23.38;53.39;101194.78;6212768;22;45926;-88
2021/07/03 10:45:09;;;;;;;;;10.00;10.00;;;;;23.42;52.84;101197.03;6236489;22;45310;-88
2021/07/03 10:47:34;;;;;;;;;11.50;11.50;;;;;23.45;53.29;101193.28;6213255;22;45270;-88
2021/07/03 10:50:00;;;;;;;;;14.25;12.25;;;;;23.52;53.05;101193.63;6213603;22;45377;-88
2021/07/03 10:52:25;;;;;;;;;11.00;10.25;;;;;23.60;53.54;101191.13;6236641;22;48078;-88
2021/07/03 10:55:02;;;;;;;;;11.00;11.00;;;;;23.76;53.21;101193.34;6212579;22;45853;-88
2021/07/03 10:57:27;;;;;;;;;11.33;10.67;;;;;23.88;52.53;101194.94;6210916;22;45350;-89
2021/07/03 11:00:03;;;;;;;;;12.25;11.75;;;;;23.96;52.45;101191.63;6210767;22;45604;-88
2021/07/03 11:02:32;;;;;;;;;9.75;9.75;;;;;24.07;52.83;101197.84;6210221;22;46083;-88
2021/07/03 11:05:01;;;;;;;;;7.00;7.00;;;;;24.16;51.71;101197.06;6208250;22;45294;-88
2021/07/03 11:07:32;;;;;;;;;7.67;7.33;;;;;24.22;51.50;101187.72;6211629;22;45365;-88
2021/07/03 11:10:11;;;;;;;;;9.00;9.00;;;;;24.25;50.46;101198.94;6209986;22;45528;-88